PWSweather.com
Personal Weather Stations
Station Observations
HAJERN
Hajeren, HvittingfossNO 3647

HajerenHvittingfossNO 3647

Lat: 59.54314324, Lon: 9.95778703

Elevation: 1320

Station Type: Fine Ofset WS 1080

Latest ConditionsUpdated 8:00:09 PM GMT+01:01 Thursday, May 24, 2018
Currently Today's Max Today's Min Today's Average
Temperature 73.2°F22.9°C 82.4°F28.0°C 46.9°F8.3°C 69.1°F20.6°C
Dew Point 43.2°F6.2°C 52.1°F11.2°C 40.0°F4.4°C 44.1°F6.7°C
Winds 0.5 mph S0.8 kmh S 1.0 mph S1.6 kmh S - 0.4 mph 0.6 kmh
Wind Gusts 0.9 mph1.4 kmh 1.3 mph2.1 kmh - -
Humidity 34% 94% 25% 46%
Pressure 30.36 in1028.1 mb 30.45 in1031.2 mb 30.36 in1028.1 mb -
Hour Temp Dew Point Humidity Winds Wind Gusts Pressure Precip Precip Rate Daily Precip Total
08:00 PM 73.2°F22.9°C 43.2°F6.2°C 34% 0.5 mph S0.8 kmh S 0.9 mph1.4 kmh 30.36 in1028.1 mb 0.00 in0.0 mm 0.00 in0.0 mm 0.00 in0.0 mm
07:30 PM 74.7°F23.7°C 43.7°F6.5°C 33% 0.7 mph S1.1 kmh S 0.9 mph1.4 kmh 30.36 in1028.1 mb 0.00 in0.0 mm 0.00 in0.0 mm 0.00 in0.0 mm
07:00 PM 76.5°F24.7°C 42.8°F6.0°C 30% 0.8 mph S1.3 kmh S 1.1 mph1.8 kmh 30.36 in1028.1 mb 0.00 in0.0 mm 0.00 in0.0 mm 0.00 in0.0 mm
06:30 PM 76.8°F24.9°C 43.9°F6.6°C 31% 0.8 mph S1.3 kmh S 1.1 mph1.8 kmh 30.36 in1028.1 mb 0.00 in0.0 mm 0.00 in0.0 mm 0.00 in0.0 mm
06:00 PM 79.2°F26.2°C 43.3°F6.3°C 28% 0.7 mph S1.1 kmh S 1.1 mph1.8 kmh 30.37 in1028.4 mb 0.00 in0.0 mm 0.00 in0.0 mm 0.00 in0.0 mm
05:30 PM 77.7°F25.4°C 43.0°F6.1°C 29% 0.9 mph S1.4 kmh S 1.1 mph1.8 kmh 30.37 in1028.4 mb 0.00 in0.0 mm 0.00 in0.0 mm 0.00 in0.0 mm
05:00 PM 77.7°F25.4°C 41.1°F5.1°C 27% 0.8 mph S1.3 kmh S 1.1 mph1.8 kmh 30.38 in1028.8 mb 0.00 in0.0 mm 0.00 in0.0 mm 0.00 in0.0 mm
04:30 PM 77.9°F25.5°C 43.1°F6.2°C 29% 0.9 mph SSW1.4 kmh SSW 1.3 mph2.1 kmh 30.38 in1028.8 mb 0.00 in0.0 mm 0.00 in0.0 mm 0.00 in0.0 mm
04:00 PM 79.7°F26.5°C 43.8°F6.6°C 28% 0.6 mph S1.0 kmh S 0.9 mph1.4 kmh 30.39 in1029.1 mb 0.00 in0.0 mm 0.00 in0.0 mm 0.00 in0.0 mm
03:30 PM 79.2°F26.2°C 44.2°F6.8°C 29% 0.8 mph S1.3 kmh S 1.3 mph2.1 kmh 30.40 in1029.5 mb 0.00 in0.0 mm 0.00 in0.0 mm 0.00 in0.0 mm
03:00 PM 80.1°F26.7°C 45.9°F7.7°C 30% 0.8 mph SSE1.3 kmh SSE 1.1 mph1.8 kmh 30.40 in1029.5 mb 0.00 in0.0 mm 0.00 in0.0 mm 0.00 in0.0 mm
02:30 PM 80.6°F27.0°C 45.4°F7.4°C 29% 0.7 mph S1.1 kmh S 1.1 mph1.8 kmh 30.40 in1029.5 mb 0.00 in0.0 mm 0.00 in0.0 mm 0.00 in0.0 mm
02:00 PM 80.2°F26.8°C 45.1°F7.3°C 29% 0.8 mph SSE1.3 kmh SSE 1.1 mph1.8 kmh 30.41 in1029.8 mb 0.00 in0.0 mm 0.00 in0.0 mm 0.00 in0.0 mm
01:30 PM 81.9°F27.7°C 44.6°F7.0°C 27% 0.7 mph S1.1 kmh S 1.1 mph1.8 kmh 30.42 in1030.1 mb 0.00 in0.0 mm 0.00 in0.0 mm 0.00 in0.0 mm
01:00 PM 81.0°F27.2°C 43.9°F6.6°C 27% 0.8 mph SW1.3 kmh SW 1.3 mph2.1 kmh 30.43 in1030.5 mb 0.00 in0.0 mm 0.00 in0.0 mm 0.00 in0.0 mm
12:30 PM 79.5°F26.4°C 41.7°F5.4°C 26% 1.0 mph S1.6 kmh S 1.3 mph2.1 kmh 30.43 in1030.5 mb 0.00 in0.0 mm 0.00 in0.0 mm 0.00 in0.0 mm
12:00 PM 81.1°F27.3°C 43.0°F6.1°C 26% 0.6 mph S1.0 kmh S 0.9 mph1.4 kmh 30.43 in1030.5 mb 0.00 in0.0 mm 0.00 in0.0 mm 0.00 in0.0 mm
11:30 AM 82.4°F28.0°C 43.1°F6.2°C 25% 0.5 mph S0.8 kmh S 0.7 mph1.1 kmh 30.43 in1030.5 mb 0.00 in0.0 mm 0.00 in0.0 mm 0.00 in0.0 mm
11:00 AM 80.8°F27.1°C 41.7°F5.4°C 25% 0.5 mph S0.8 kmh S 0.9 mph1.4 kmh 30.43 in1030.5 mb 0.00 in0.0 mm 0.00 in0.0 mm 0.00 in0.0 mm
10:30 AM 79.3°F26.3°C 40.5°F4.7°C 25% 0.5 mph SSW0.8 kmh SSW 0.9 mph1.4 kmh 30.44 in1030.8 mb 0.00 in0.0 mm 0.00 in0.0 mm 0.00 in0.0 mm
10:00 AM 78.1°F25.6°C 41.4°F5.2°C 27% 0.4 mph SSE0.6 kmh SSE 0.7 mph1.1 kmh 30.45 in1031.2 mb 0.00 in0.0 mm 0.00 in0.0 mm 0.00 in0.0 mm
09:30 AM 78.8°F26.0°C 41.1°F5.1°C 26% 0.3 mph S0.5 kmh S 0.4 mph0.6 kmh 30.44 in1030.8 mb 0.00 in0.0 mm 0.00 in0.0 mm 0.00 in0.0 mm
09:00 AM 78.1°F25.6°C 45.0°F7.2°C 31% 0.3 mph SSW0.5 kmh SSW 0.4 mph0.6 kmh 30.45 in1031.2 mb 0.00 in0.0 mm 0.00 in0.0 mm 0.00 in0.0 mm
08:30 AM 77.4°F25.2°C 42.7°F5.9°C 29% 0.3 mph SW0.5 kmh SW 0.4 mph0.6 kmh 30.44 in1030.8 mb 0.00 in0.0 mm 0.00 in0.0 mm 0.00 in0.0 mm
08:00 AM 73.4°F23.0°C 43.4°F6.3°C 34% 0.3 mph S0.5 kmh S 0.4 mph0.6 kmh 30.43 in1030.5 mb 0.00 in0.0 mm 0.00 in0.0 mm 0.00 in0.0 mm
07:30 AM 71.8°F22.1°C 46.2°F7.9°C 40% 0.2 mph SE0.3 kmh SE 0.2 mph0.3 kmh 30.43 in1030.5 mb 0.00 in0.0 mm 0.00 in0.0 mm 0.00 in0.0 mm
07:00 AM 67.6°F19.8°C 43.7°F6.5°C 42% 0.2 mph SE0.3 kmh SE 0.4 mph0.6 kmh 30.43 in1030.5 mb 0.00 in0.0 mm 0.00 in0.0 mm 0.00 in0.0 mm
06:30 AM 62.8°F17.1°C 46.4°F8.0°C 55% 0.3 mph SE0.5 kmh SE 0.4 mph0.6 kmh 30.43 in1030.5 mb 0.00 in0.0 mm 0.00 in0.0 mm 0.00 in0.0 mm
06:00 AM 60.8°F16.0°C 52.1°F11.2°C 73% Calm Calm -- 30.42 in1030.1 mb 0.00 in0.0 mm 0.00 in0.0 mm 0.00 in0.0 mm
05:30 AM 51.1°F10.6°C 49.4°F9.7°C 94% 0.2 mph NE0.3 kmh NE 0.2 mph0.3 kmh 30.42 in1030.1 mb 0.00 in0.0 mm 0.00 in0.0 mm 0.00 in0.0 mm
05:00 AM 50.7°F10.4°C 47.9°F8.8°C 90% 0.2 mph NE0.3 kmh NE 0.2 mph0.3 kmh 30.41 in1029.8 mb 0.00 in0.0 mm 0.00 in0.0 mm 0.00 in0.0 mm
04:30 AM 51.3°F10.7°C 47.5°F8.6°C 87% 0.2 mph ENE0.3 kmh ENE 0.2 mph0.3 kmh 30.41 in1029.8 mb 0.00 in0.0 mm 0.00 in0.0 mm 0.00 in0.0 mm
04:00 AM 53.6°F12.0°C 46.6°F8.1°C 77% 0.2 mph ESE0.3 kmh ESE 0.2 mph0.3 kmh 30.41 in1029.8 mb 0.00 in0.0 mm 0.00 in0.0 mm 0.00 in0.0 mm
03:30 AM 52.7°F11.5°C 46.4°F8.0°C 79% 0.3 mph SSE0.5 kmh SSE 0.4 mph0.6 kmh 30.41 in1029.8 mb 0.00 in0.0 mm 0.00 in0.0 mm 0.00 in0.0 mm
03:00 AM 51.8°F11.0°C 42.3°F5.7°C 70% 0.1 mph ESE0.2 kmh ESE 0.2 mph0.3 kmh 30.41 in1029.8 mb 0.00 in0.0 mm 0.00 in0.0 mm 0.00 in0.0 mm
02:30 AM 50.2°F10.1°C 40.0°F4.4°C 68% 0.1 mph SE0.2 kmh SE 0.2 mph0.3 kmh 30.41 in1029.8 mb 0.00 in0.0 mm 0.00 in0.0 mm 0.00 in0.0 mm
02:00 AM 52.0°F11.1°C 40.6°F4.8°C 65% 0.1 mph E0.2 kmh E 0.2 mph0.3 kmh 30.40 in1029.5 mb 0.00 in0.0 mm 0.00 in0.0 mm 0.00 in0.0 mm
01:30 AM 48.6°F9.2°C 42.7°F5.9°C 80% Calm Calm 0.2 mph0.3 kmh 30.39 in1029.1 mb 0.00 in0.0 mm 0.00 in0.0 mm 0.00 in0.0 mm
01:00 AM 46.9°F8.3°C 44.5°F6.9°C 91% 0.1 mph ENE0.2 kmh ENE 0.2 mph0.3 kmh 30.39 in1029.1 mb 0.00 in0.0 mm 0.00 in0.0 mm 0.00 in0.0 mm
12:30 AM 46.9°F8.3°C 45.3°F7.4°C 94% Calm Calm -- 30.39 in1029.1 mb 0.00 in0.0 mm 0.00 in0.0 mm 0.00 in0.0 mm
12:00 AM 48.4°F9.1°C 44.7°F7.1°C 87% Calm Calm -- 30.38 in1028.8 mb 0.00 in0.0 mm 0.00 in0.0 mm 0.00 in0.0 mm